Campo di Volo "Al Ranch"

METAR LIPI TAF LIPQ
2 °C
°C
-
°C
1h
Âge
21:05:20
LT
20:05
UTC
0 ft

1.000

2.000

3.000

4.000

5.000

SCT 3.000
BKN 4.500
VFR
<?= Yii::t('app', 'Wind direction') ?> <?= Yii::t('app', 'of'); ?>
030°
07:25
Lever du soleil
75%
Humidité
Cisaillement du vent
Fermé/neige
Portée visuelle RWY
Condition RWY
Visibilité vert.
Visibilité min.
CAVOK
Tendance
Correction
Rapport spécial
1033 hPa
QNH
METAR LIPI 051855Z 03002KT 9999 SCT030 BKN045 02/M02 Q1033 RMK BKN VIS MIN 9999 WIND THR06 05003KT WIND THR24 06003KT BLU
Fragmenté
0 kt
0 kt
21:00
VFR
6 kt
22:00
VFR
6 kt
23:00
VFR
6 kt
00:00
VFR
6 kt
01:00
VFR
6 kt
02:00
VFR
6 kt
03:00
VFR
6 kt
10 km+
Vue
4.500 ft
Base cloud
2 kt
Vent
metar-taf.com/IT-0402

Metar-Taf.com

Décodeur visuel

Nous et des tiers suivons ton comportement Internet sur notre site Web à l'aide de cookies. Si tu continues, nous supposons que tu es d'accord avec notre Politique en matière de cookies.